Terminal Aerodrome Forecast
Issued by NWS Green Bay, WI

Home | Current Version | Previous Version | Graphics & Text | Print | Product List | Glossary On
Versions: 1 2 3 4 5 6 7 8 9 10 11 12 13 14 15 16 17 18 19 20 21 22 23 24 25 26 27 28 29 30 31 32 33 34 35 36 37 38
000
FTUS43 KGRB 281136
TAFGRB
TAF
KGRB 281136Z 2812/2912 36008KT P6SM SCT018 BKN035
      TEMPO 2812/2814 -SHRA BKN018
     FM281400 03011G17KT P6SM BKN022 BKN035
      TEMPO 2814/2817 -SHRA
     FM281700 04016G23KT P6SM BKN026
     FM281900 04016G23KT P6SM BKN045
     FM290000 02010KT P6SM SCT030=

USA.gov is the U.S. government's official web portal to all federal, state and local government web resources and services.